sensor_id;sensor_type;location;lat;lon;timestamp;temperature;humidity
35563;DHT22;21665;40.108;18.302;2023-09-19T00:00:56;22.00;99.90
35563;DHT22;21665;40.108;18.302;2023-09-19T00:03:24;22.00;99.90
35563;DHT22;21665;40.108;18.302;2023-09-19T00:05:52;22.00;99.90
35563;DHT22;21665;40.108;18.302;2023-09-19T00:08:18;22.00;99.90
35563;DHT22;21665;40.108;18.302;2023-09-19T00:10:50;22.00;99.90
35563;DHT22;21665;40.108;18.302;2023-09-19T00:13:16;21.90;99.90
35563;DHT22;21665;40.108;18.302;2023-09-19T00:15:48;21.90;99.90
35563;DHT22;21665;40.108;18.302;2023-09-19T00:18:15;21.90;99.90
35563;DHT22;21665;40.108;18.302;2023-09-19T00:20:43;21.90;99.90
35563;DHT22;21665;40.108;18.302;2023-09-19T00:23:14;21.90;99.90
35563;DHT22;21665;40.108;18.302;2023-09-19T00:25:41;21.90;99.90
35563;DHT22;21665;40.108;18.302;2023-09-19T00:28:08;21.90;99.90
35563;DHT22;21665;40.108;18.302;2023-09-19T00:30:35;21.90;99.90
35563;DHT22;21665;40.108;18.302;2023-09-19T00:33:03;22.00;99.90
35563;DHT22;21665;40.108;18.302;2023-09-19T00:35:32;22.00;99.90
35563;DHT22;21665;40.108;18.302;2023-09-19T00:37:59;22.10;99.90
35563;DHT22;21665;40.108;18.302;2023-09-19T00:40:26;22.10;99.90
35563;DHT22;21665;40.108;18.302;2023-09-19T00:42:57;22.20;99.90
35563;DHT22;21665;40.108;18.302;2023-09-19T00:45:27;22.20;99.90
35563;DHT22;21665;40.108;18.302;2023-09-19T00:47:57;22.20;99.90
35563;DHT22;21665;40.108;18.302;2023-09-19T00:50:38;22.20;99.90
35563;DHT22;21665;40.108;18.302;2023-09-19T00:53:15;22.20;99.90
35563;DHT22;21665;40.108;18.302;2023-09-19T00:55:45;22.20;99.90
35563;DHT22;21665;40.108;18.302;2023-09-19T00:58:12;22.10;99.90
35563;DHT22;21665;40.108;18.302;2023-09-19T01:00:41;22.10;99.90
35563;DHT22;21665;40.108;18.302;2023-09-19T01:03:12;22.10;99.90
35563;DHT22;21665;40.108;18.302;2023-09-19T01:05:42;22.00;99.90
35563;DHT22;21665;40.108;18.302;2023-09-19T01:08:09;22.00;99.90
35563;DHT22;21665;40.108;18.302;2023-09-19T01:10:45;22.00;99.90
35563;DHT22;21665;40.108;18.302;2023-09-19T01:13:29;21.90;99.90
35563;DHT22;21665;40.108;18.302;2023-09-19T01:19:28;21.90;99.90
35563;DHT22;21665;40.108;18.302;2023-09-19T01:22:50;21.80;99.90
35563;DHT22;21665;40.108;18.302;2023-09-19T01:28:51;21.80;99.90
35563;DHT22;21665;40.108;18.302;2023-09-19T01:31:31;21.80;99.90
35563;DHT22;21665;40.108;18.302;2023-09-19T01:34:03;21.80;99.90
35563;DHT22;21665;40.108;18.302;2023-09-19T01:36:36;21.70;99.90
35563;DHT22;21665;40.108;18.302;2023-09-19T01:39:10;21.70;99.90
35563;DHT22;21665;40.108;18.302;2023-09-19T01:47:50;21.70;99.90
35563;DHT22;21665;40.108;18.302;2023-09-19T01:50:55;21.70;99.90
35563;DHT22;21665;40.108;18.302;2023-09-19T01:53:35;21.70;99.90
35563;DHT22;21665;40.108;18.302;2023-09-19T01:56:07;21.80;99.90
35563;DHT22;21665;40.108;18.302;2023-09-19T01:58:49;21.80;99.90
35563;DHT22;21665;40.108;18.302;2023-09-19T02:01:24;21.90;99.90
35563;DHT22;21665;40.108;18.302;2023-09-19T02:03:53;21.90;99.90
35563;DHT22;21665;40.108;18.302;2023-09-19T02:06:20;21.90;99.90
35563;DHT22;21665;40.108;18.302;2023-09-19T02:08:47;21.90;99.90
35563;DHT22;21665;40.108;18.302;2023-09-19T02:11:16;21.80;99.90
35563;DHT22;21665;40.108;18.302;2023-09-19T02:13:43;21.80;99.90
35563;DHT22;21665;40.108;18.302;2023-09-19T02:16:10;21.70;99.90
35563;DHT22;21665;40.108;18.302;2023-09-19T02:18:39;21.60;99.90
35563;DHT22;21665;40.108;18.302;2023-09-19T02:21:06;21.50;99.90
35563;DHT22;21665;40.108;18.302;2023-09-19T02:23:38;21.40;99.90
35563;DHT22;21665;40.108;18.302;2023-09-19T02:26:05;21.40;99.90
35563;DHT22;21665;40.108;18.302;2023-09-19T02:28:32;21.40;99.90
35563;DHT22;21665;40.108;18.302;2023-09-19T02:30:59;21.30;99.90
35563;DHT22;21665;40.108;18.302;2023-09-19T02:33:26;21.30;99.90
35563;DHT22;21665;40.108;18.302;2023-09-19T02:35:58;21.30;99.90
35563;DHT22;21665;40.108;18.302;2023-09-19T02:38:25;21.30;99.90
35563;DHT22;21665;40.108;18.302;2023-09-19T02:40:55;21.30;99.90
35563;DHT22;21665;40.108;18.302;2023-09-19T02:43:23;21.30;99.90
35563;DHT22;21665;40.108;18.302;2023-09-19T02:45:50;21.30;99.90
35563;DHT22;21665;40.108;18.302;2023-09-19T02:48:17;21.20;99.90
35563;DHT22;21665;40.108;18.302;2023-09-19T02:50:52;21.20;99.90
35563;DHT22;21665;40.108;18.302;2023-09-19T02:53:22;21.20;99.90
35563;DHT22;21665;40.108;18.302;2023-09-19T02:55:50;21.20;99.90
35563;DHT22;21665;40.108;18.302;2023-09-19T02:58:20;21.30;99.90
35563;DHT22;21665;40.108;18.302;2023-09-19T03:00:47;21.30;99.90
35563;DHT22;21665;40.108;18.302;2023-09-19T03:03:14;21.30;99.90
35563;DHT22;21665;40.108;18.302;2023-09-19T03:05:42;21.20;99.90
35563;DHT22;21665;40.108;18.302;2023-09-19T03:08:15;21.20;99.90
35563;DHT22;21665;40.108;18.302;2023-09-19T03:10:41;21.20;99.90
35563;DHT22;21665;40.108;18.302;2023-09-19T03:13:08;21.30;99.90
35563;DHT22;21665;40.108;18.302;2023-09-19T03:15:36;21.20;99.90
35563;DHT22;21665;40.108;18.302;2023-09-19T03:18:06;21.10;99.90
35563;DHT22;21665;40.108;18.302;2023-09-19T03:20:34;21.00;99.90
35563;DHT22;21665;40.108;18.302;2023-09-19T03:23:01;21.00;99.90
35563;DHT22;21665;40.108;18.302;2023-09-19T03:25:28;20.90;99.90
35563;DHT22;21665;40.108;18.302;2023-09-19T03:28:02;20.90;99.90
35563;DHT22;21665;40.108;18.302;2023-09-19T03:30:32;20.90;99.90
35563;DHT22;21665;40.108;18.302;2023-09-19T03:33:01;20.90;99.90
35563;DHT22;21665;40.108;18.302;2023-09-19T03:35:30;20.90;99.90
35563;DHT22;21665;40.108;18.302;2023-09-19T03:37:57;20.90;99.90
35563;DHT22;21665;40.108;18.302;2023-09-19T03:40:24;20.90;99.90
35563;DHT22;21665;40.108;18.302;2023-09-19T03:42:51;21.00;99.90
35563;DHT22;21665;40.108;18.302;2023-09-19T03:45:18;21.00;99.90
35563;DHT22;21665;40.108;18.302;2023-09-19T03:47:50;20.90;99.90
35563;DHT22;21665;40.108;18.302;2023-09-19T03:50:20;20.90;99.90
35563;DHT22;21665;40.108;18.302;2023-09-19T03:52:47;20.90;99.90
35563;DHT22;21665;40.108;18.302;2023-09-19T03:55:14;20.90;99.90
35563;DHT22;21665;40.108;18.302;2023-09-19T03:57:41;20.90;99.90
35563;DHT22;21665;40.108;18.302;2023-09-19T04:00:09;20.90;99.90
35563;DHT22;21665;40.108;18.302;2023-09-19T04:02:42;21.00;99.90
35563;DHT22;21665;40.108;18.302;2023-09-19T04:05:10;20.90;99.90
35563;DHT22;21665;40.108;18.302;2023-09-19T04:07:37;20.90;99.90
35563;DHT22;21665;40.108;18.302;2023-09-19T04:10:04;20.80;99.90
35563;DHT22;21665;40.108;18.302;2023-09-19T04:12:30;20.90;99.90
35563;DHT22;21665;40.108;18.302;2023-09-19T04:14:59;20.90;99.90
35563;DHT22;21665;40.108;18.302;2023-09-19T04:17:25;21.00;99.90
35563;DHT22;21665;40.108;18.302;2023-09-19T04:19:52;21.00;99.90
35563;DHT22;21665;40.108;18.302;2023-09-19T04:22:20;21.00;99.90
35563;DHT22;21665;40.108;18.302;2023-09-19T04:24:46;21.00;99.90
35563;DHT22;21665;40.108;18.302;2023-09-19T04:27:13;21.00;99.90
35563;DHT22;21665;40.108;18.302;2023-09-19T04:29:41;21.00;99.90
35563;DHT22;21665;40.108;18.302;2023-09-19T04:32:11;21.10;99.90
35563;DHT22;21665;40.108;18.302;2023-09-19T04:34:39;21.00;99.90
35563;DHT22;21665;40.108;18.302;2023-09-19T04:37:05;20.90;99.90
35563;DHT22;21665;40.108;18.302;2023-09-19T04:39:32;20.90;99.90
35563;DHT22;21665;40.108;18.302;2023-09-19T04:42:00;20.90;99.90
35563;DHT22;21665;40.108;18.302;2023-09-19T04:44:26;20.80;99.90
35563;DHT22;21665;40.108;18.302;2023-09-19T04:46:52;20.80;99.90
35563;DHT22;21665;40.108;18.302;2023-09-19T04:49:19;20.80;99.90
35563;DHT22;21665;40.108;18.302;2023-09-19T04:51:45;20.80;99.90
35563;DHT22;21665;40.108;18.302;2023-09-19T04:54:12;20.80;99.90
35563;DHT22;21665;40.108;18.302;2023-09-19T04:56:39;20.80;99.90
35563;DHT22;21665;40.108;18.302;2023-09-19T04:59:06;20.80;99.90
35563;DHT22;21665;40.108;18.302;2023-09-19T05:01:33;20.80;99.90
35563;DHT22;21665;40.108;18.302;2023-09-19T05:03:59;20.80;99.90
35563;DHT22;21665;40.108;18.302;2023-09-19T05:06:26;20.80;99.90
35563;DHT22;21665;40.108;18.302;2023-09-19T05:08:53;20.80;99.90
35563;DHT22;21665;40.108;18.302;2023-09-19T05:11:20;20.80;99.90
35563;DHT22;21665;40.108;18.302;2023-09-19T05:13:51;20.90;99.90
35563;DHT22;21665;40.108;18.302;2023-09-19T05:16:19;20.90;99.90
35563;DHT22;21665;40.108;18.302;2023-09-19T05:18:45;21.10;99.90
35563;DHT22;21665;40.108;18.302;2023-09-19T05:21:12;21.30;99.90
35563;DHT22;21665;40.108;18.302;2023-09-19T05:23:39;21.50;99.90
35563;DHT22;21665;40.108;18.302;2023-09-19T05:26:05;21.70;99.90
35563;DHT22;21665;40.108;18.302;2023-09-19T05:28:37;22.00;99.90
35563;DHT22;21665;40.108;18.302;2023-09-19T05:31:04;22.20;99.90
35563;DHT22;21665;40.108;18.302;2023-09-19T05:33:30;22.30;99.90
35563;DHT22;21665;40.108;18.302;2023-09-19T05:35:57;22.50;99.90
35563;DHT22;21665;40.108;18.302;2023-09-19T05:38:24;22.70;99.90
35563;DHT22;21665;40.108;18.302;2023-09-19T05:40:53;23.00;99.90
35563;DHT22;21665;40.108;18.302;2023-09-19T05:43:20;23.40;99.90
35563;DHT22;21665;40.108;18.302;2023-09-19T05:45:46;23.90;99.90
35563;DHT22;21665;40.108;18.302;2023-09-19T05:48:16;24.40;99.90
35563;DHT22;21665;40.108;18.302;2023-09-19T05:50:44;24.70;99.90
35563;DHT22;21665;40.108;18.302;2023-09-19T05:53:13;24.90;99.90
35563;DHT22;21665;40.108;18.302;2023-09-19T05:55:43;25.20;99.90
35563;DHT22;21665;40.108;18.302;2023-09-19T05:58:10;25.70;99.90
35563;DHT22;21665;40.108;18.302;2023-09-19T06:00:36;26.00;99.90
35563;DHT22;21665;40.108;18.302;2023-09-19T06:03:03;26.20;99.90
35563;DHT22;21665;40.108;18.302;2023-09-19T06:05:30;26.50;99.90
35563;DHT22;21665;40.108;18.302;2023-09-19T07:41:36;31.90;99.90
35563;DHT22;21665;40.108;18.302;2023-09-19T07:44:03;32.20;99.90
35563;DHT22;21665;40.108;18.302;2023-09-19T07:46:29;32.50;99.90
35563;DHT22;21665;40.108;18.302;2023-09-19T07:48:57;32.90;99.90
35563;DHT22;21665;40.108;18.302;2023-09-19T07:51:36;32.70;99.90
35563;DHT22;21665;40.108;18.302;2023-09-19T07:54:03;32.80;99.90
35563;DHT22;21665;40.108;18.302;2023-09-19T07:56:29;33.00;99.90
35563;DHT22;21665;40.108;18.302;2023-09-19T07:58:57;33.00;99.90
35563;DHT22;21665;40.108;18.302;2023-09-19T11:58:56;33.90;99.90
35563;DHT22;21665;40.108;18.302;2023-09-19T12:01:30;34.00;99.90
35563;DHT22;21665;40.108;18.302;2023-09-19T12:03:58;34.20;99.90
35563;DHT22;21665;40.108;18.302;2023-09-19T12:06:29;34.40;99.90
35563;DHT22;21665;40.108;18.302;2023-09-19T12:08:56;34.40;99.90
35563;DHT22;21665;40.108;18.302;2023-09-19T12:11:31;34.40;99.90
35563;DHT22;21665;40.108;18.302;2023-09-19T12:14:09;34.60;99.90
35563;DHT22;21665;40.108;18.302;2023-09-19T12:16:40;34.50;99.90
35563;DHT22;21665;40.108;18.302;2023-09-19T12:19:30;34.60;99.90
35563;DHT22;21665;40.108;18.302;2023-09-19T12:22:03;34.60;99.90
35563;DHT22;21665;40.108;18.302;2023-09-19T12:24:36;34.60;99.90
35563;DHT22;21665;40.108;18.302;2023-09-19T12:27:07;34.70;99.90
35563;DHT22;21665;40.108;18.302;2023-09-19T12:29:48;34.70;99.90
35563;DHT22;21665;40.108;18.302;2023-09-19T12:32:16;34.60;99.90
35563;DHT22;21665;40.108;18.302;2023-09-19T12:34:52;34.60;99.90
35563;DHT22;21665;40.108;18.302;2023-09-19T12:37:21;34.60;99.90
35563;DHT22;21665;40.108;18.302;2023-09-19T12:39:52;34.60;99.90
35563;DHT22;21665;40.108;18.302;2023-09-19T12:42:26;34.50;99.90
35563;DHT22;21665;40.108;18.302;2023-09-19T12:45:01;34.30;99.90
35563;DHT22;21665;40.108;18.302;2023-09-19T12:47:28;34.20;99.90
35563;DHT22;21665;40.108;18.302;2023-09-19T12:50:12;34.20;99.90
35563;DHT22;21665;40.108;18.302;2023-09-19T12:52:47;34.20;99.90
35563;DHT22;21665;40.108;18.302;2023-09-19T12:55:25;34.20;99.90
35563;DHT22;21665;40.108;18.302;2023-09-19T12:58:07;34.00;99.90
35563;DHT22;21665;40.108;18.302;2023-09-19T13:00:39;34.10;99.90
35563;DHT22;21665;40.108;18.302;2023-09-19T13:03:27;34.20;99.90
35563;DHT22;21665;40.108;18.302;2023-09-19T13:06:02;34.10;99.90
35563;DHT22;21665;40.108;18.302;2023-09-19T13:08:32;34.10;99.90
35563;DHT22;21665;40.108;18.302;2023-09-19T13:11:03;34.10;99.90
35563;DHT22;21665;40.108;18.302;2023-09-19T13:13:33;34.10;99.90
35563;DHT22;21665;40.108;18.302;2023-09-19T13:16:03;34.10;99.90
35563;DHT22;21665;40.108;18.302;2023-09-19T13:18:42;34.10;99.90
35563;DHT22;21665;40.108;18.302;2023-09-19T13:21:14;34.10;99.90
35563;DHT22;21665;40.108;18.302;2023-09-19T13:23:51;34.00;99.90
35563;DHT22;21665;40.108;18.302;2023-09-19T13:26:18;34.00;99.90
35563;DHT22;21665;40.108;18.302;2023-09-19T13:28:46;34.00;99.90
35563;DHT22;21665;40.108;18.302;2023-09-19T13:31:15;33.70;99.90
35563;DHT22;21665;40.108;18.302;2023-09-19T13:33:44;33.50;99.90
35563;DHT22;21665;40.108;18.302;2023-09-19T13:36:12;33.60;99.90
35563;DHT22;21665;40.108;18.302;2023-09-19T13:38:40;33.70;99.90
35563;DHT22;21665;40.108;18.302;2023-09-19T13:41:10;33.70;99.90
35563;DHT22;21665;40.108;18.302;2023-09-19T13:43:38;33.80;99.90
35563;DHT22;21665;40.108;18.302;2023-09-19T13:46:05;33.80;99.90
35563;DHT22;21665;40.108;18.302;2023-09-19T13:48:38;33.70;99.90
35563;DHT22;21665;40.108;18.302;2023-09-19T13:51:04;33.70;99.90
35563;DHT22;21665;40.108;18.302;2023-09-19T13:53:30;33.60;99.90
35563;DHT22;21665;40.108;18.302;2023-09-19T13:55:57;33.50;99.90
35563;DHT22;21665;40.108;18.302;2023-09-19T13:58:23;33.50;99.90
35563;DHT22;21665;40.108;18.302;2023-09-19T14:00:50;33.40;99.90
35563;DHT22;21665;40.108;18.302;2023-09-19T14:03:16;33.40;99.90
35563;DHT22;21665;40.108;18.302;2023-09-19T14:05:43;33.60;99.90
35563;DHT22;21665;40.108;18.302;2023-09-19T14:08:09;33.60;99.90
35563;DHT22;21665;40.108;18.302;2023-09-19T14:10:36;33.40;99.90
35563;DHT22;21665;40.108;18.302;2023-09-19T14:13:02;33.30;99.90
35563;DHT22;21665;40.108;18.302;2023-09-19T14:15:29;33.20;99.90
35563;DHT22;21665;40.108;18.302;2023-09-19T14:17:57;33.20;99.90
35563;DHT22;21665;40.108;18.302;2023-09-19T14:20:25;33.00;99.90
35563;DHT22;21665;40.108;18.302;2023-09-19T14:22:55;32.90;99.90
35563;DHT22;21665;40.108;18.302;2023-09-19T14:25:22;32.80;99.90
35563;DHT22;21665;40.108;18.302;2023-09-19T14:27:49;32.70;99.90
35563;DHT22;21665;40.108;18.302;2023-09-19T14:30:16;32.70;99.90
35563;DHT22;21665;40.108;18.302;2023-09-19T14:32:43;32.60;99.90
35563;DHT22;21665;40.108;18.302;2023-09-19T14:35:13;32.60;99.90
35563;DHT22;21665;40.108;18.302;2023-09-19T14:37:49;32.60;99.90
35563;DHT22;21665;40.108;18.302;2023-09-19T14:40:19;32.50;99.90
35563;DHT22;21665;40.108;18.302;2023-09-19T14:42:46;32.50;99.90
35563;DHT22;21665;40.108;18.302;2023-09-19T14:45:12;32.50;99.90
35563;DHT22;21665;40.108;18.302;2023-09-19T14:47:40;32.50;99.90
35563;DHT22;21665;40.108;18.302;2023-09-19T14:50:08;32.50;99.90
35563;DHT22;21665;40.108;18.302;2023-09-19T14:52:35;32.40;99.90
35563;DHT22;21665;40.108;18.302;2023-09-19T14:55:02;32.50;99.90
35563;DHT22;21665;40.108;18.302;2023-09-19T14:57:30;32.40;99.90
35563;DHT22;21665;40.108;18.302;2023-09-19T15:00:13;32.40;99.90
35563;DHT22;21665;40.108;18.302;2023-09-19T15:03:29;32.30;99.90
35563;DHT22;21665;40.108;18.302;2023-09-19T15:06:04;32.20;99.90
35563;DHT22;21665;40.108;18.302;2023-09-19T15:08:32;32.10;99.90
35563;DHT22;21665;40.108;18.302;2023-09-19T15:11:07;31.90;99.90
35563;DHT22;21665;40.108;18.302;2023-09-19T15:13:34;31.90;99.90
35563;DHT22;21665;40.108;18.302;2023-09-19T15:16:07;31.90;99.90
35563;DHT22;21665;40.108;18.302;2023-09-19T15:18:47;31.80;99.90
35563;DHT22;21665;40.108;18.302;2023-09-19T15:21:18;31.50;99.90
35563;DHT22;21665;40.108;18.302;2023-09-19T15:23:45;31.50;99.90
35563;DHT22;21665;40.108;18.302;2023-09-19T15:26:14;31.50;99.90
35563;DHT22;21665;40.108;18.302;2023-09-19T15:28:46;31.40;99.90
35563;DHT22;21665;40.108;18.302;2023-09-19T15:31:13;31.40;99.90
35563;DHT22;21665;40.108;18.302;2023-09-19T15:33:40;31.40;99.90
35563;DHT22;21665;40.108;18.302;2023-09-19T15:36:08;31.30;99.90
35563;DHT22;21665;40.108;18.302;2023-09-19T15:39:00;31.30;99.90
35563;DHT22;21665;40.108;18.302;2023-09-19T15:41:33;31.10;99.90
35563;DHT22;21665;40.108;18.302;2023-09-19T15:44:01;31.00;99.90
35563;DHT22;21665;40.108;18.302;2023-09-19T15:46:33;31.00;99.90
35563;DHT22;21665;40.108;18.302;2023-09-19T15:49:01;30.90;99.90
35563;DHT22;21665;40.108;18.302;2023-09-19T15:51:28;30.70;99.90
35563;DHT22;21665;40.108;18.302;2023-09-19T15:53:56;30.70;99.90
35563;DHT22;21665;40.108;18.302;2023-09-19T15:56:23;30.60;99.90
35563;DHT22;21665;40.108;18.302;2023-09-19T15:58:51;30.60;99.90
35563;DHT22;21665;40.108;18.302;2023-09-19T16:01:21;30.30;99.90
35563;DHT22;21665;40.108;18.302;2023-09-19T16:03:49;30.30;99.90
35563;DHT22;21665;40.108;18.302;2023-09-19T16:06:24;30.20;99.90
35563;DHT22;21665;40.108;18.302;2023-09-19T16:08:53;30.10;99.90
35563;DHT22;21665;40.108;18.302;2023-09-19T16:11:22;30.00;99.90
35563;DHT22;21665;40.108;18.302;2023-09-19T16:13:49;29.90;99.90
35563;DHT22;21665;40.108;18.302;2023-09-19T16:16:18;29.80;99.90
35563;DHT22;21665;40.108;18.302;2023-09-19T16:18:57;29.70;99.90
35563;DHT22;21665;40.108;18.302;2023-09-19T16:21:27;29.60;99.90
35563;DHT22;21665;40.108;18.302;2023-09-19T16:23:59;29.50;99.90
35563;DHT22;21665;40.108;18.302;2023-09-19T16:26:27;29.30;99.90
35563;DHT22;21665;40.108;18.302;2023-09-19T16:28:56;29.30;99.90
35563;DHT22;21665;40.108;18.302;2023-09-19T16:37:56;28.90;99.90
35563;DHT22;21665;40.108;18.302;2023-09-19T16:40:23;28.80;99.90
35563;DHT22;21665;40.108;18.302;2023-09-19T16:42:50;28.70;99.90
35563;DHT22;21665;40.108;18.302;2023-09-19T16:45:17;28.70;99.90
35563;DHT22;21665;40.108;18.302;2023-09-19T16:47:45;28.60;99.90
35563;DHT22;21665;40.108;18.302;2023-09-19T16:50:17;28.60;99.90
35563;DHT22;21665;40.108;18.302;2023-09-19T16:52:45;28.50;99.90
35563;DHT22;21665;40.108;18.302;2023-09-19T16:55:15;28.40;99.90
35563;DHT22;21665;40.108;18.302;2023-09-19T16:57:43;28.30;99.90
35563;DHT22;21665;40.108;18.302;2023-09-19T17:00:13;28.30;99.90
35563;DHT22;21665;40.108;18.302;2023-09-19T17:02:46;28.20;99.90
35563;DHT22;21665;40.108;18.302;2023-09-19T17:05:14;28.20;99.90
35563;DHT22;21665;40.108;18.302;2023-09-19T17:07:41;28.10;99.90
35563;DHT22;21665;40.108;18.302;2023-09-19T17:10:09;28.00;99.90
35563;DHT22;21665;40.108;18.302;2023-09-19T19:23:23;25.60;99.90
35563;DHT22;21665;40.108;18.302;2023-09-19T19:25:50;25.50;99.90
35563;DHT22;21665;40.108;18.302;2023-09-19T19:28:20;25.40;99.90
35563;DHT22;21665;40.108;18.302;2023-09-19T19:30:47;25.40;99.90
35563;DHT22;21665;40.108;18.302;2023-09-19T19:33:14;25.30;99.90
35563;DHT22;21665;40.108;18.302;2023-09-19T19:35:40;25.30;99.90
35563;DHT22;21665;40.108;18.302;2023-09-19T19:38:10;25.20;99.90
35563;DHT22;21665;40.108;18.302;2023-09-19T19:40:37;25.10;99.90
35563;DHT22;21665;40.108;18.302;2023-09-19T19:43:04;25.00;99.90
35563;DHT22;21665;40.108;18.302;2023-09-19T19:45:34;24.90;99.90
35563;DHT22;21665;40.108;18.302;2023-09-19T19:48:01;24.80;99.90
35563;DHT22;21665;40.108;18.302;2023-09-19T19:50:38;24.70;99.90
35563;DHT22;21665;40.108;18.302;2023-09-19T19:53:04;24.70;99.90
35563;DHT22;21665;40.108;18.302;2023-09-19T19:55:33;24.70;99.90
35563;DHT22;21665;40.108;18.302;2023-09-19T19:58:00;24.60;99.90
35563;DHT22;21665;40.108;18.302;2023-09-19T20:00:27;24.50;99.90
35563;DHT22;21665;40.108;18.302;2023-09-19T20:02:57;24.50;99.90
35563;DHT22;21665;40.108;18.302;2023-09-19T20:05:23;24.40;99.90
35563;DHT22;21665;40.108;18.302;2023-09-19T20:07:52;24.40;99.90
35563;DHT22;21665;40.108;18.302;2023-09-19T20:10:19;24.40;99.90
35563;DHT22;21665;40.108;18.302;2023-09-19T20:12:49;24.40;99.90
35563;DHT22;21665;40.108;18.302;2023-09-19T20:15:16;24.40;99.90
35563;DHT22;21665;40.108;18.302;2023-09-19T20:17:42;24.40;99.90
35563;DHT22;21665;40.108;18.302;2023-09-19T20:20:12;24.30;99.90
35563;DHT22;21665;40.108;18.302;2023-09-19T20:22:45;24.30;99.90
35563;DHT22;21665;40.108;18.302;2023-09-19T20:25:12;24.30;99.90
35563;DHT22;21665;40.108;18.302;2023-09-19T20:27:42;24.40;99.90
35563;DHT22;21665;40.108;18.302;2023-09-19T20:30:10;24.40;99.90
35563;DHT22;21665;40.108;18.302;2023-09-19T20:32:39;24.40;99.90
35563;DHT22;21665;40.108;18.302;2023-09-19T20:35:07;24.40;99.90
35563;DHT22;21665;40.108;18.302;2023-09-19T20:37:34;24.30;99.90
35563;DHT22;21665;40.108;18.302;2023-09-19T20:40:05;24.20;99.90
35563;DHT22;21665;40.108;18.302;2023-09-19T20:42:39;24.00;99.90
35563;DHT22;21665;40.108;18.302;2023-09-19T20:45:07;24.00;99.90
35563;DHT22;21665;40.108;18.302;2023-09-19T20:47:40;23.90;99.90
35563;DHT22;21665;40.108;18.302;2023-09-19T20:50:08;23.90;99.90
35563;DHT22;21665;40.108;18.302;2023-09-19T20:52:36;23.90;99.90
35563;DHT22;21665;40.108;18.302;2023-09-19T20:55:12;23.80;99.90
35563;DHT22;21665;40.108;18.302;2023-09-19T20:57:39;23.80;99.90
35563;DHT22;21665;40.108;18.302;2023-09-19T21:00:08;23.70;99.90
35563;DHT22;21665;40.108;18.302;2023-09-19T21:02:36;23.80;99.90
35563;DHT22;21665;40.108;18.302;2023-09-19T21:05:04;23.60;99.90
35563;DHT22;21665;40.108;18.302;2023-09-19T21:07:31;23.60;99.90
35563;DHT22;21665;40.108;18.302;2023-09-19T21:09:58;23.70;99.90
35563;DHT22;21665;40.108;18.302;2023-09-19T21:12:26;23.60;99.90
35563;DHT22;21665;40.108;18.302;2023-09-19T21:14:52;23.60;99.90
35563;DHT22;21665;40.108;18.302;2023-09-19T21:17:25;23.60;99.90
35563;DHT22;21665;40.108;18.302;2023-09-19T21:19:52;23.60;99.90
35563;DHT22;21665;40.108;18.302;2023-09-19T21:22:19;23.60;99.90
35563;DHT22;21665;40.108;18.302;2023-09-19T21:24:47;23.50;99.90
35563;DHT22;21665;40.108;18.302;2023-09-19T21:27:15;23.50;99.90
35563;DHT22;21665;40.108;18.302;2023-09-19T21:29:45;23.50;99.90
35563;DHT22;21665;40.108;18.302;2023-09-19T21:32:12;23.50;99.90
35563;DHT22;21665;40.108;18.302;2023-09-19T21:34:41;23.50;99.90
35563;DHT22;21665;40.108;18.302;2023-09-19T21:37:09;23.40;99.90
35563;DHT22;21665;40.108;18.302;2023-09-19T21:39:41;23.30;99.90
35563;DHT22;21665;40.108;18.302;2023-09-19T21:42:07;23.30;99.90
35563;DHT22;21665;40.108;18.302;2023-09-19T21:44:34;23.30;99.90
35563;DHT22;21665;40.108;18.302;2023-09-19T21:47:00;23.20;99.90
35563;DHT22;21665;40.108;18.302;2023-09-19T21:49:28;23.30;99.90
35563;DHT22;21665;40.108;18.302;2023-09-19T22:16:15;23.20;99.90
35563;DHT22;21665;40.108;18.302;2023-09-19T22:18:44;23.10;99.90
35563;DHT22;21665;40.108;18.302;2023-09-19T22:21:13;23.20;99.90
35563;DHT22;21665;40.108;18.302;2023-09-19T22:23:49;23.10;99.90
35563;DHT22;21665;40.108;18.302;2023-09-19T22:26:21;23.10;99.90
35563;DHT22;21665;40.108;18.302;2023-09-19T22:28:55;23.00;99.90
35563;DHT22;21665;40.108;18.302;2023-09-19T22:31:25;23.00;99.90
35563;DHT22;21665;40.108;18.302;2023-09-19T22:34:02;23.00;99.90
35563;DHT22;21665;40.108;18.302;2023-09-19T22:36:35;22.80;99.90
35563;DHT22;21665;40.108;18.302;2023-09-19T22:39:09;22.80;99.90
35563;DHT22;21665;40.108;18.302;2023-09-19T22:41:55;22.70;99.90
35563;DHT22;21665;40.108;18.302;2023-09-19T22:44:28;22.80;99.90
35563;DHT22;21665;40.108;18.302;2023-09-19T22:46:57;22.90;99.90
35563;DHT22;21665;40.108;18.302;2023-09-19T22:49:23;22.80;99.90
35563;DHT22;21665;40.108;18.302;2023-09-19T22:51:52;22.90;99.90
35563;DHT22;21665;40.108;18.302;2023-09-19T22:54:31;22.80;99.90
35563;DHT22;21665;40.108;18.302;2023-09-19T22:57:02;22.80;99.90
35563;DHT22;21665;40.108;18.302;2023-09-19T22:59:31;22.70;99.90
35563;DHT22;21665;40.108;18.302;2023-09-19T23:02:00;22.70;99.90
35563;DHT22;21665;40.108;18.302;2023-09-19T23:04:26;22.70;99.90
35563;DHT22;21665;40.108;18.302;2023-09-19T23:06:53;22.70;99.90
35563;DHT22;21665;40.108;18.302;2023-09-19T23:09:28;22.70;99.90
35563;DHT22;21665;40.108;18.302;2023-09-19T23:11:56;22.60;99.90
35563;DHT22;21665;40.108;18.302;2023-09-19T23:14:28;22.60;99.90
35563;DHT22;21665;40.108;18.302;2023-09-19T23:17:05;22.60;99.90
35563;DHT22;21665;40.108;18.302;2023-09-19T23:19:43;22.50;99.90
35563;DHT22;21665;40.108;18.302;2023-09-19T23:22:14;22.50;99.90
35563;DHT22;21665;40.108;18.302;2023-09-19T23:24:45;22.40;99.90
35563;DHT22;21665;40.108;18.302;2023-09-19T23:27:15;22.40;99.90
35563;DHT22;21665;40.108;18.302;2023-09-19T23:29:53;22.40;99.90
35563;DHT22;21665;40.108;18.302;2023-09-19T23:32:23;22.30;99.90
35563;DHT22;21665;40.108;18.302;2023-09-19T23:34:51;22.30;99.90
35563;DHT22;21665;40.108;18.302;2023-09-19T23:37:17;22.30;99.90
35563;DHT22;21665;40.108;18.302;2023-09-19T23:39:46;22.30;99.90
35563;DHT22;21665;40.108;18.302;2023-09-19T23:42:12;22.40;99.90
35563;DHT22;21665;40.108;18.302;2023-09-19T23:44:39;22.40;99.90
35563;DHT22;21665;40.108;18.302;2023-09-19T23:47:15;22.30;99.90
35563;DHT22;21665;40.108;18.302;2023-09-19T23:49:44;22.30;99.90
35563;DHT22;21665;40.108;18.302;2023-09-19T23:52:12;22.20;99.90
35563;DHT22;21665;40.108;18.302;2023-09-19T23:54:39;22.20;99.90
35563;DHT22;21665;40.108;18.302;2023-09-19T23:57:06;22.20;99.90